createdAt,value
2018-11-29T00:00:34.398Z,59.00
2018-11-29T00:03:03.267Z,59.30
2018-11-29T00:05:32.529Z,59.00
2018-11-29T00:08:01.355Z,59.10
2018-11-29T00:10:30.538Z,59.10
2018-11-29T00:12:59.432Z,59.10
2018-11-29T00:15:28.237Z,59.70
2018-11-29T00:17:57.019Z,59.30
2018-11-29T00:20:25.820Z,59.10
2018-11-29T00:22:54.625Z,59.20
2018-11-29T00:25:23.486Z,59.20
2018-11-29T00:27:52.269Z,59.30
2018-11-29T00:30:22.887Z,59.30
2018-11-29T00:32:53.241Z,59.40
2018-11-29T00:35:22.049Z,59.40
2018-11-29T00:37:50.878Z,59.40
2018-11-29T00:40:25.124Z,59.40
2018-11-29T00:42:53.995Z,59.40
2018-11-29T00:45:23.897Z,59.40
2018-11-29T00:47:52.943Z,59.40
2018-11-29T00:50:22.113Z,59.40
2018-11-29T00:52:51.523Z,59.50
2018-11-29T00:55:22.885Z,59.50
2018-11-29T00:57:52.414Z,59.50
2018-11-29T01:00:24.555Z,60.00
2018-11-29T01:02:53.401Z,59.50
2018-11-29T01:05:22.204Z,59.60
2018-11-29T01:07:51.007Z,59.40
2018-11-29T01:10:19.924Z,59.60
2018-11-29T01:12:49.211Z,59.60
2018-11-29T01:15:19.490Z,59.60
2018-11-29T01:17:49.557Z,59.60
2018-11-29T01:20:20.479Z,59.60
2018-11-29T01:22:49.312Z,59.60
2018-11-29T01:25:18.296Z,59.50
2018-11-29T01:27:48.677Z,59.50
2018-11-29T01:30:18.895Z,59.50
2018-11-29T01:32:48.161Z,59.50
2018-11-29T01:35:19.790Z,59.50
2018-11-29T01:37:49.167Z,59.50
2018-11-29T01:40:21.839Z,59.50
2018-11-29T01:42:57.896Z,59.50
2018-11-29T01:45:26.985Z,59.50
2018-11-29T01:47:55.767Z,59.50
2018-11-29T01:50:24.594Z,59.40
2018-11-29T01:52:53.772Z,59.90
2018-11-29T01:55:22.575Z,59.50
2018-11-29T01:57:51.441Z,59.40
2018-11-29T02:00:20.265Z,59.30
2018-11-29T02:02:50.969Z,59.40
2018-11-29T02:05:19.774Z,59.40
2018-11-29T02:07:48.621Z,59.30
2018-11-29T02:10:23.293Z,59.30
2018-11-29T02:12:52.476Z,59.40
2018-11-29T02:15:21.276Z,59.30
2018-11-29T02:17:50.059Z,59.30
2018-11-29T02:20:19.880Z,59.30
2018-11-29T02:22:48.941Z,59.30
2018-11-29T02:25:17.761Z,59.30
2018-11-29T02:27:46.573Z,59.30
2018-11-29T02:30:21.077Z,59.30
2018-11-29T02:32:50.889Z,59.40
2018-11-29T02:35:19.693Z,59.30
2018-11-29T02:37:48.541Z,59.30
2018-11-29T02:40:18.279Z,59.30
2018-11-29T02:42:48.499Z,59.30
2018-11-29T02:45:21.991Z,59.20
2018-11-29T02:47:50.792Z,59.20
2018-11-29T02:50:19.594Z,59.40
2018-11-29T02:52:48.582Z,59.10
2018-11-29T02:55:17.377Z,59.00
2018-11-29T02:57:46.187Z,59.00
2018-11-29T03:00:17.346Z,58.90
2018-11-29T03:02:46.197Z,58.90
2018-11-29T03:05:16.140Z,58.80
2018-11-29T03:07:44.988Z,58.70
2018-11-29T03:10:14.780Z,58.70
2018-11-29T03:12:43.952Z,58.60
2018-11-29T03:15:15.410Z,58.50
2018-11-29T03:17:44.861Z,58.50
2018-11-29T03:20:14.602Z,58.30
2018-11-29T03:22:43.506Z,58.30
2018-11-29T03:25:15.505Z,58.20
2018-11-29T03:27:44.814Z,58.20
2018-11-29T03:30:15.964Z,58.50
2018-11-29T03:32:44.810Z,58.60
2018-11-29T03:35:15.218Z,58.20
2018-11-29T03:37:44.014Z,58.10
2018-11-29T03:40:14.389Z,58.00
2018-11-29T03:42:43.372Z,58.00
2018-11-29T03:45:15.235Z,58.00
2018-11-29T03:47:44.213Z,57.90
2018-11-29T03:50:15.449Z,57.70
2018-11-29T03:52:44.322Z,57.80
2018-11-29T03:55:13.348Z,57.70
2018-11-29T03:57:42.157Z,57.60
2018-11-29T04:00:15.281Z,57.60
2018-11-29T04:02:45.072Z,57.90
2018-11-29T04:05:14.044Z,57.60
2018-11-29T04:07:42.861Z,57.50
2018-11-29T04:10:14.203Z,57.40
2018-11-29T04:12:43.378Z,57.40
2018-11-29T04:15:13.625Z,57.40
2018-11-29T04:17:42.443Z,57.40
2018-11-29T04:20:16.565Z,57.40
2018-11-29T04:22:45.415Z,57.30
2018-11-29T04:25:15.172Z,57.20
2018-11-29T04:27:44.513Z,57.10
2018-11-29T04:30:15.608Z,57.10
2018-11-29T04:32:44.491Z,57.10
2018-11-29T04:35:13.933Z,57.00
2018-11-29T04:37:42.746Z,57.00
2018-11-29T04:40:14.993Z,57.00
2018-11-29T04:42:43.879Z,56.90
2018-11-29T04:45:14.270Z,56.80
2018-11-29T04:47:43.197Z,56.60
2018-11-29T04:50:12.024Z,56.60
2018-11-29T04:52:40.802Z,56.40
2018-11-29T04:55:10.483Z,56.30
2018-11-29T04:57:39.292Z,56.40
2018-11-29T05:00:12.554Z,56.30
2018-11-29T05:02:41.379Z,56.30
2018-11-29T05:05:10.819Z,56.20
2018-11-29T05:07:39.978Z,56.20
2018-11-29T05:10:11.094Z,56.10
2018-11-29T05:12:39.909Z,56.00
2018-11-29T05:15:10.933Z,55.90
2018-11-29T05:17:39.764Z,55.80
2018-11-29T05:20:09.372Z,55.70
2018-11-29T05:22:38.754Z,55.70
2018-11-29T05:25:09.293Z,55.70
2018-11-29T05:27:38.328Z,55.60
2018-11-29T05:35:09.818Z,55.40
2018-11-29T05:37:39.159Z,55.50
2018-11-29T05:40:11.201Z,55.40
2018-11-29T05:42:40.093Z,55.40
2018-11-29T05:45:10.461Z,55.20
2018-11-29T05:47:39.313Z,55.20
2018-11-29T05:50:11.505Z,55.10
2018-11-29T05:52:41.842Z,55.00
2018-11-29T05:55:11.361Z,54.90
2018-11-29T05:57:40.158Z,54.80
2018-11-29T06:00:14.642Z,54.60
2018-11-29T06:02:44.157Z,54.50
2018-11-29T06:05:15.105Z,54.50
2018-11-29T06:07:43.900Z,54.40
2018-11-29T06:10:12.711Z,54.30
2018-11-29T06:12:41.777Z,54.20
2018-11-29T06:15:11.493Z,54.20
2018-11-29T06:17:40.838Z,54.20
2018-11-29T06:20:13.212Z,54.20
2018-11-29T06:22:42.041Z,54.20
2018-11-29T06:25:11.169Z,54.00
2018-11-29T06:27:40.010Z,54.10
2018-11-29T06:30:18.142Z,54.40
2018-11-29T06:32:47.790Z,53.70
2018-11-29T06:35:16.637Z,53.70
2018-11-29T06:37:45.942Z,53.70
2018-11-29T06:40:16.164Z,53.60
2018-11-29T06:42:45.135Z,53.50
2018-11-29T06:45:21.205Z,53.50
2018-11-29T06:47:52.260Z,53.50
2018-11-29T06:50:21.065Z,53.40
2018-11-29T06:52:51.554Z,53.40
2018-11-29T06:55:21.737Z,53.30
2018-11-29T06:57:50.777Z,53.10
2018-11-29T07:00:25.317Z,53.10
2018-11-29T07:02:54.209Z,53.10
2018-11-29T07:05:23.019Z,52.90
2018-11-29T07:07:51.853Z,52.80
2018-11-29T07:10:26.081Z,52.80
2018-11-29T07:12:54.911Z,52.70
2018-11-29T07:15:23.878Z,52.70
2018-11-29T07:17:52.653Z,52.50
2018-11-29T07:20:21.461Z,52.70
2018-11-29T07:22:50.306Z,52.40
2018-11-29T07:25:19.125Z,52.50
2018-11-29T07:27:47.950Z,52.60
2018-11-29T07:30:18.022Z,52.40
2018-11-29T07:32:47.209Z,52.30
2018-11-29T07:35:17.452Z,52.40
2018-11-29T07:37:46.744Z,52.10
2018-11-29T07:40:19.537Z,52.70
2018-11-29T07:42:52.317Z,52.10
2018-11-29T07:45:21.721Z,52.00
2018-11-29T07:47:50.517Z,51.90
2018-11-29T07:50:22.107Z,51.90
2018-11-29T07:52:50.973Z,52.30
2018-11-29T07:55:21.234Z,52.00
2018-11-29T07:57:52.078Z,51.90
2018-11-29T08:00:20.971Z,51.60
2018-11-29T08:02:49.805Z,51.60
2018-11-29T08:05:18.689Z,51.40
2018-11-29T08:07:48.727Z,51.30
2018-11-29T08:10:18.863Z,51.20
2018-11-29T08:12:48.368Z,51.20
2018-11-29T08:15:20.310Z,51.70
2018-11-29T08:17:49.177Z,51.10
2018-11-29T08:20:19.505Z,51.00
2018-11-29T08:22:48.338Z,51.40
2018-11-29T08:25:17.751Z,51.10
2018-11-29T08:27:46.589Z,51.00
2018-11-29T08:30:16.277Z,50.90
2018-11-29T08:32:45.674Z,50.70
2018-11-29T08:35:15.536Z,50.60
2018-11-29T08:37:46.668Z,50.70
2018-11-29T08:40:17.676Z,50.50
2018-11-29T08:42:46.488Z,50.40
2018-11-29T08:45:15.316Z,50.20
2018-11-29T08:47:44.131Z,50.20
2018-11-29T08:50:13.958Z,50.20
2018-11-29T08:52:44.534Z,50.00
2018-11-29T08:55:16.648Z,49.70
2018-11-29T08:57:46.100Z,49.90
2018-11-29T09:00:17.641Z,49.80
2018-11-29T09:02:46.502Z,49.80
2018-11-29T09:05:15.779Z,49.50
2018-11-29T09:07:46.003Z,49.50
2018-11-29T09:10:18.927Z,49.40
2018-11-29T09:12:47.731Z,49.30
2018-11-29T09:15:17.292Z,49.10
2018-11-29T09:17:46.213Z,49.00
2018-11-29T09:20:17.677Z,49.00
2018-11-29T09:22:46.466Z,48.80
2018-11-29T09:25:16.701Z,48.50
2018-11-29T09:27:45.519Z,48.20
2018-11-29T09:30:18.730Z,48.20
2018-11-29T09:32:48.947Z,48.20
2018-11-29T09:35:17.779Z,48.30
2018-11-29T09:37:46.590Z,48.20
2018-11-29T09:40:16.857Z,48.20
2018-11-29T09:42:45.920Z,48.10
2018-11-29T09:45:22.654Z,48.00
2018-11-29T09:47:53.920Z,48.00
2018-11-29T09:50:23.330Z,47.80
2018-11-29T09:52:52.162Z,47.70
2018-11-29T09:55:20.969Z,47.70
2018-11-29T09:57:50.826Z,47.40
2018-11-29T10:00:28.020Z,47.40
2018-11-29T10:03:06.794Z,47.30
2018-11-29T10:05:35.617Z,47.30
2018-11-29T10:08:11.529Z,47.30
2018-11-29T10:10:33.477Z,47.30
2018-11-29T10:13:02.256Z,47.20
2018-11-29T10:15:31.058Z,47.30
2018-11-29T10:17:59.874Z,47.10
2018-11-29T10:20:28.686Z,47.20
2018-11-29T10:22:57.485Z,47.20
2018-11-29T10:25:26.826Z,47.20
2018-11-29T10:27:58.616Z,47.10
2018-11-29T10:30:53.649Z,47.10
2018-11-29T10:33:22.465Z,47.10
2018-11-29T10:35:51.265Z,47.20
2018-11-29T10:38:21.967Z,47.30
2018-11-29T10:40:51.073Z,47.10
2018-11-29T10:43:19.947Z,47.10
2018-11-29T10:45:48.977Z,46.80
2018-11-29T10:48:22.177Z,46.90
2018-11-29T10:50:51.053Z,46.80
2018-11-29T10:53:19.852Z,47.10
2018-11-29T10:55:48.669Z,46.60
2018-11-29T10:58:17.518Z,46.40
2018-11-29T11:01:49.134Z,46.40
2018-11-29T11:04:18.150Z,46.40
2018-11-29T11:06:46.989Z,46.60
2018-11-29T11:09:15.813Z,46.40
2018-11-29T11:11:44.645Z,46.40
2018-11-29T11:14:13.478Z,46.30
2018-11-29T11:16:42.303Z,46.20
2018-11-29T11:19:11.122Z,46.30
2018-11-29T11:21:39.970Z,46.20
2018-11-29T11:24:08.786Z,45.90
2018-11-29T11:26:37.998Z,46.00
2018-11-29T11:29:06.962Z,45.80
2018-11-29T11:31:35.773Z,45.60
2018-11-29T11:34:04.590Z,45.80
2018-11-29T11:36:33.398Z,46.00
2018-11-29T11:39:02.197Z,45.60
2018-11-29T11:41:31.140Z,45.70
2018-11-29T11:43:59.933Z,45.70
2018-11-29T11:46:28.785Z,45.60
2018-11-29T11:48:58.020Z,45.70
2018-11-29T11:51:26.809Z,45.40
2018-11-29T11:53:55.602Z,45.40
2018-11-29T11:56:24.439Z,45.40
2018-11-29T11:58:53.236Z,45.30
2018-11-29T12:01:22.037Z,45.40
2018-11-29T12:03:57.135Z,45.20
2018-11-29T12:06:25.965Z,45.20
2018-11-29T12:08:54.753Z,45.00
2018-11-29T12:11:23.873Z,44.90
2018-11-29T12:13:52.706Z,44.80
2018-11-29T12:16:21.501Z,44.70
2018-11-29T12:18:50.381Z,44.80
2018-11-29T12:21:19.182Z,44.70
2018-11-29T12:23:47.985Z,44.70
2018-11-29T12:26:16.814Z,44.70
2018-11-29T12:28:45.601Z,44.50
2018-11-29T12:31:14.434Z,44.40
2018-11-29T12:33:43.614Z,44.60
2018-11-29T12:36:12.426Z,44.60
2018-11-29T12:38:41.238Z,44.40
2018-11-29T12:41:10.038Z,44.20
2018-11-29T12:43:39.163Z,44.20
2018-11-29T12:46:07.993Z,44.20
2018-11-29T12:48:36.838Z,44.10
2018-11-29T12:51:05.718Z,43.80
2018-11-29T12:53:34.523Z,43.70
2018-11-29T12:56:03.913Z,43.90
2018-11-29T12:58:32.718Z,44.00
2018-11-29T13:01:01.528Z,43.80
2018-11-29T13:03:30.423Z,43.70
2018-11-29T13:05:59.282Z,43.50
2018-11-29T13:08:28.075Z,43.10
2018-11-29T13:10:56.901Z,43.40
2018-11-29T13:13:27.571Z,43.30
2018-11-29T13:15:54.530Z,43.10
2018-11-29T13:18:30.219Z,43.20
2018-11-29T13:21:03.171Z,43.10
2018-11-29T13:23:31.981Z,43.30
2018-11-29T13:26:00.801Z,43.10
2018-11-29T13:28:29.649Z,42.90
2018-11-29T13:30:58.482Z,43.00
2018-11-29T13:33:27.270Z,42.90
2018-11-29T13:35:56.082Z,42.70
2018-11-29T13:38:25.297Z,42.80
2018-11-29T13:40:54.102Z,42.90
2018-11-29T13:43:23.006Z,42.80
2018-11-29T13:45:52.222Z,42.70
2018-11-29T13:48:21.049Z,42.80
2018-11-29T13:50:49.865Z,42.40
2018-11-29T13:53:18.673Z,42.40
2018-11-29T13:55:47.495Z,42.20
2018-11-29T13:58:16.327Z,42.40
2018-11-29T14:00:45.417Z,42.30
2018-11-29T14:03:15.334Z,42.80
2018-11-29T14:05:44.125Z,42.40
2018-11-29T14:08:12.904Z,42.30
2018-11-29T14:10:42.937Z,42.40
2018-11-29T14:13:11.831Z,42.30
2018-11-29T14:15:40.646Z,42.40
2018-11-29T14:18:09.474Z,42.40
2018-11-29T14:20:38.514Z,42.60
2018-11-29T14:23:07.750Z,42.60
2018-11-29T14:25:36.646Z,42.60
2018-11-29T14:28:06.109Z,42.70
2018-11-29T14:30:34.936Z,42.50
2018-11-29T14:33:03.741Z,42.50
2018-11-29T14:35:32.563Z,42.60
2018-11-29T14:38:01.409Z,42.70
2018-11-29T14:40:33.513Z,42.70
2018-11-29T14:43:02.710Z,42.70
2018-11-29T14:45:31.798Z,42.60
2018-11-29T14:48:00.892Z,43.10
2018-11-29T14:50:41.774Z,42.40
2018-11-29T14:53:10.918Z,42.50
2018-11-29T14:55:40.590Z,42.60
2018-11-29T14:58:11.733Z,42.80
2018-11-29T15:00:40.529Z,42.80
2018-11-29T15:03:25.815Z,42.70
2018-11-29T15:05:54.636Z,42.60
2018-11-29T15:08:23.502Z,42.80
2018-11-29T15:10:52.353Z,42.90
2018-11-29T15:13:21.163Z,43.00
2018-11-29T15:15:49.978Z,43.10
2018-11-29T15:18:18.830Z,43.00
2018-11-29T15:20:48.957Z,43.10
2018-11-29T15:23:19.401Z,43.10
2018-11-29T15:25:48.220Z,43.10
2018-11-29T15:28:17.058Z,43.00
2018-11-29T15:30:45.882Z,43.00
2018-11-29T15:33:14.679Z,43.20
2018-11-29T15:35:43.517Z,43.10
2018-11-29T15:38:12.625Z,43.20
2018-11-29T15:40:41.420Z,43.20
2018-11-29T15:43:10.262Z,43.20
2018-11-29T15:45:39.101Z,43.20
2018-11-29T15:48:08.269Z,43.30
2018-11-29T15:50:37.077Z,43.50
2018-11-29T15:53:07.109Z,43.40
2018-11-29T15:55:36.633Z,43.40
2018-11-29T15:58:05.888Z,43.50
2018-11-29T16:00:35.137Z,43.50
2018-11-29T16:03:06.641Z,43.50
2018-11-29T16:05:35.493Z,43.50
2018-11-29T16:08:04.290Z,43.60
2018-11-29T16:10:33.142Z,43.50
2018-11-29T16:13:01.965Z,43.40
2018-11-29T16:15:30.809Z,43.40
2018-11-29T16:17:59.613Z,43.50
2018-11-29T16:20:34.667Z,43.60
2018-11-29T16:23:03.477Z,43.60
2018-11-29T16:25:32.282Z,43.70
2018-11-29T16:28:01.110Z,43.60
2018-11-29T16:30:44.419Z,43.60
2018-11-29T16:33:17.994Z,43.70
2018-11-29T16:35:46.805Z,43.50
2018-11-29T16:38:15.614Z,43.50
2018-11-29T16:40:44.789Z,43.50
2018-11-29T16:43:13.689Z,43.50
2018-11-29T16:45:42.566Z,43.40
2018-11-29T16:48:11.971Z,43.60
2018-11-29T16:50:40.845Z,43.60
2018-11-29T16:53:09.643Z,43.80
2018-11-29T16:55:38.731Z,43.60
2018-11-29T16:58:12.768Z,44.20
2018-11-29T17:00:42.175Z,43.40
2018-11-29T17:03:10.976Z,43.30
2018-11-29T17:05:39.847Z,43.40
2018-11-29T17:08:08.988Z,43.40
2018-11-29T17:10:37.806Z,43.40
2018-11-29T17:13:12.973Z,44.50
2018-11-29T17:15:41.854Z,43.40
2018-11-29T17:18:10.653Z,43.40
2018-11-29T17:20:39.958Z,43.20
2018-11-29T17:23:10.490Z,43.20
2018-11-29T17:25:39.285Z,43.30
2018-11-29T17:28:08.175Z,43.30
2018-11-29T17:30:38.175Z,43.30
2018-11-29T17:33:08.725Z,43.30
2018-11-29T17:35:37.573Z,43.20
2018-11-29T17:38:06.976Z,43.10
2018-11-29T17:40:37.533Z,43.00
2018-11-29T17:43:07.486Z,42.90
2018-11-29T17:45:36.541Z,43.10
2018-11-29T17:48:08.325Z,43.00
2018-11-29T17:50:42.229Z,42.90
2018-11-29T17:53:11.069Z,43.00
2018-11-29T17:55:40.133Z,43.10
2018-11-29T17:58:11.248Z,43.00
2018-11-29T18:00:40.498Z,42.80
2018-11-29T18:03:09.442Z,42.60
2018-11-29T18:05:38.309Z,42.60
2018-11-29T18:08:07.137Z,42.60
2018-11-29T18:10:38.671Z,42.50
2018-11-29T18:13:20.105Z,42.50
2018-11-29T18:15:48.914Z,42.50
2018-11-29T18:18:17.731Z,42.50
2018-11-29T18:20:46.914Z,42.40
2018-11-29T18:23:15.709Z,43.00
2018-11-29T18:25:44.536Z,42.40
2018-11-29T18:28:13.565Z,42.20
2018-11-29T18:30:42.367Z,42.20
2018-11-29T18:33:11.181Z,42.00
2018-11-29T18:35:40.010Z,42.20
2018-11-29T18:38:08.808Z,42.20
2018-11-29T18:40:37.593Z,42.20
2018-11-29T18:43:09.026Z,42.10
2018-11-29T18:45:37.934Z,42.00
2018-11-29T18:48:07.563Z,42.00
2018-11-29T18:50:36.379Z,42.00
2018-11-29T18:53:06.276Z,41.90
2018-11-29T18:55:35.149Z,42.00
2018-11-29T18:58:04.333Z,41.80
2018-11-29T19:00:34.952Z,41.80
2018-11-29T19:03:03.826Z,41.90
2018-11-29T19:05:32.884Z,41.90
2018-11-29T19:08:01.685Z,41.90
2018-11-29T19:10:30.518Z,41.80
2018-11-29T19:13:07.329Z,41.80
2018-11-29T19:15:36.236Z,41.80
2018-11-29T19:18:10.318Z,41.80
2018-11-29T19:20:34.373Z,41.80
2018-11-29T19:23:03.158Z,41.80
2018-11-29T19:25:31.982Z,41.70
2018-11-29T19:28:00.777Z,41.70
2018-11-29T19:30:30.773Z,41.70
2018-11-29T19:33:03.586Z,41.90
2018-11-29T19:35:32.509Z,41.80
2018-11-29T19:38:01.341Z,41.50
2018-11-29T19:40:30.567Z,41.70
2018-11-29T19:42:59.391Z,41.70
2018-11-29T19:45:28.226Z,41.50
2018-11-29T19:47:57.069Z,41.60
2018-11-29T19:50:25.894Z,41.50
2018-11-29T19:52:57.636Z,41.60
2018-11-29T19:55:28.641Z,41.50
2018-11-29T19:57:57.483Z,41.50
2018-11-29T20:00:26.376Z,41.40
2018-11-29T20:02:56.663Z,41.40
2018-11-29T20:05:25.496Z,41.40
2018-11-29T20:07:54.341Z,41.50
2018-11-29T20:10:23.214Z,41.50
2018-11-29T20:13:00.081Z,41.50
2018-11-29T20:15:29.080Z,41.60
2018-11-29T20:17:57.933Z,41.60
2018-11-29T20:20:26.771Z,41.60
2018-11-29T20:22:55.861Z,41.40
2018-11-29T20:25:26.226Z,41.40
2018-11-29T20:27:55.046Z,41.40
2018-11-29T20:30:24.638Z,41.50
2018-11-29T20:32:54.788Z,41.50
2018-11-29T20:35:23.678Z,41.50
2018-11-29T20:37:53.717Z,41.40
2018-11-29T20:40:24.462Z,41.50
2018-11-29T20:42:56.274Z,41.50
2018-11-29T20:45:32.993Z,41.60
2018-11-29T20:48:04.341Z,41.70
2018-11-29T20:50:33.151Z,41.60
2018-11-29T20:53:01.979Z,41.50
2018-11-29T20:55:32.063Z,41.50
2018-11-29T20:58:00.852Z,41.60
2018-11-29T21:00:29.684Z,41.70
2018-11-29T21:02:58.693Z,41.70
2018-11-29T21:05:27.505Z,41.70
2018-11-29T21:07:59.921Z,41.60
2018-11-29T21:10:28.732Z,41.60
2018-11-29T21:13:01.706Z,41.70
2018-11-29T21:15:30.520Z,41.80
2018-11-29T21:17:59.321Z,41.80
2018-11-29T21:20:28.917Z,41.90
2018-11-29T21:22:57.727Z,42.00
2018-11-29T21:25:26.721Z,42.50
2018-11-29T21:27:55.571Z,42.10
2018-11-29T21:30:24.361Z,42.00
2018-11-29T21:32:53.181Z,41.90
2018-11-29T21:35:23.314Z,42.00
2018-11-29T21:37:53.314Z,42.10
2018-11-29T21:40:31.890Z,42.10
2018-11-29T21:43:00.683Z,42.10
2018-11-29T21:45:29.493Z,42.20
2018-11-29T21:47:58.341Z,42.30
2018-11-29T21:50:27.182Z,42.10
2018-11-29T21:52:55.983Z,42.20
2018-11-29T21:55:24.801Z,42.70
2018-11-29T21:57:53.855Z,42.30
2018-11-29T22:00:23.425Z,42.30
2018-11-29T22:02:56.634Z,42.10
2018-11-29T22:05:25.544Z,42.30
2018-11-29T22:07:54.345Z,42.40
2018-11-29T22:10:23.149Z,42.90
2018-11-29T22:12:51.965Z,42.40
2018-11-29T22:15:20.776Z,42.40
2018-11-29T22:18:15.096Z,42.40
2018-11-29T22:20:43.924Z,42.40
2018-11-29T22:23:12.743Z,42.50
2018-11-29T22:25:42.686Z,42.60
2018-11-29T22:28:11.497Z,42.60
2018-11-29T22:30:41.373Z,42.60
2018-11-29T22:33:12.140Z,42.60
2018-11-29T22:35:40.956Z,42.60
2018-11-29T22:38:09.767Z,42.70
2018-11-29T22:40:38.788Z,42.70
2018-11-29T22:43:07.608Z,42.60
2018-11-29T22:45:36.487Z,42.60
2018-11-29T22:48:05.401Z,42.60
2018-11-29T22:50:34.251Z,42.60
2018-11-29T22:53:03.073Z,42.60
2018-11-29T22:55:32.013Z,42.60
2018-11-29T22:58:01.406Z,42.60
2018-11-29T23:00:35.704Z,42.60
2018-11-29T23:03:04.545Z,42.60
2018-11-29T23:05:33.410Z,42.60
2018-11-29T23:08:02.267Z,42.70
2018-11-29T23:10:31.057Z,42.70
2018-11-29T23:12:59.875Z,42.70
2018-11-29T23:15:28.736Z,42.60
2018-11-29T23:17:57.545Z,42.60
2018-11-29T23:20:26.417Z,42.50
2018-11-29T23:22:55.255Z,42.40
2018-11-29T23:25:24.092Z,42.50
2018-11-29T23:27:52.893Z,42.40
2018-11-29T23:30:21.702Z,42.40
2018-11-29T23:32:50.538Z,42.40
2018-11-29T23:35:19.330Z,42.40
2018-11-29T23:37:48.176Z,42.50
2018-11-29T23:40:18.103Z,42.40
2018-11-29T23:42:47.242Z,42.40
2018-11-29T23:45:16.511Z,42.40
2018-11-29T23:47:45.301Z,42.30
2018-11-29T23:50:17.775Z,42.30
2018-11-29T23:52:47.016Z,42.20
2018-11-29T23:55:21.382Z,42.20
2018-11-29T23:57:50.193Z,42.20
